Flugplatz Meinerzhagen (EDKZ)

Hier findest Du alle Informationen zum Flugplatz Meinerzhagen (EDKZ).

Informationen für Piloten zum Flugplatz Meinerzhagen

Hier findest Du alle relevanten Informationen, die Du als Pilot benötigst, um Meinerzhagen anzufliegen.

Flugplatz: Meinerzhagen ICAO-Code: EDKZ
Frequenz Turm: 130,600 Mhz GAFOR Gebiet: 35
Frequenz Ground: 130,600 Mhz Mogas: nein
Platzrunde: N 2400 ft Landegebühr: -
Platzhöhe: 1.548 ft Sunrise: 06:15 Uhr UTC
Pisten: 07/25 - 820 m x 20 m, ASPH Sunset: 17:08 Uhr UTC

Flugwetter am Flugplatz Meinerzhagen

Die METAR Information stammen aus EDDK (41.28 km entfernt).

METAR Code:
2024/02/11 20:20
EDDK 112020Z AUTO 19005KT 9999 SCT035 OVC042 09/06 Q0995 NOSIG

Flugschulen am Flugplatz Meinerzhagen

Am Flugplatz Meinerzhagen gibt es eine Flugschule.

Flugluft.de Tragschrauber

Benachbarte Flugplätze und Flugschulen

Es gibt 21 weitere Flugplätze in einem Umkreis von 50 km um den Flugplatz Meinerzhagen.

Jetzt anmelden

Passwort vergessen

Umfrage Archiv

Wie häufig haltet Ihr die Halbkreisflugregel ein?

Eher häufig!
35 %
Immer!
32.5 %
Hin und wieder!
15.5 %
Nie!
10.2 %
Eher selten!
6.8 %
Stimmen: 206 | Diskussion
Anzeige: Roland Aircraft
Statistik Alle Mitglieder

Aktuell sind 19 Besucher online, davon 1 Mitglied und 18 Gäste.


Mitglieder online:
Lolgs12 

Anzeige: EasyVFR